createdAt,value
2018-06-14T00:01:35.902Z,99500.42
2018-06-14T00:07:42.299Z,99490.94
2018-06-14T00:13:47.950Z,99486.33
2018-06-14T00:19:54.673Z,99487.02
2018-06-14T00:26:00.745Z,99496.41
2018-06-14T00:32:06.476Z,99489.98
2018-06-14T00:38:12.158Z,99500.50
2018-06-14T00:44:17.841Z,99496.29
2018-06-14T00:50:24.236Z,99493.68
2018-06-14T00:56:36.121Z,99498.19
2018-06-14T01:02:41.941Z,99498.28
2018-06-14T01:08:47.663Z,99496.80
2018-06-14T01:14:54.811Z,99505.35
2018-06-14T01:21:00.535Z,99502.41
2018-06-14T01:27:10.008Z,99503.35
2018-06-14T01:33:15.782Z,99507.06
2018-06-14T01:39:21.968Z,99513.87
2018-06-14T01:45:27.821Z,99520.91
2018-06-14T01:51:33.553Z,99531.43
2018-06-14T01:57:39.284Z,99533.50
2018-06-14T02:03:45.045Z,99530.88
2018-06-14T02:09:51.144Z,99523.39
2018-06-14T02:15:57.153Z,99522.83
2018-06-14T02:22:02.777Z,99523.98
2018-06-14T02:28:08.673Z,99534.13
2018-06-14T02:34:14.376Z,99546.47
2018-06-14T02:40:20.938Z,99557.30
2018-06-14T02:46:26.920Z,99553.80
2018-06-14T02:52:32.767Z,99557.18
2018-06-14T02:58:38.455Z,99549.55
2018-06-14T03:04:44.396Z,99555.53
2018-06-14T03:10:51.879Z,99541.27
2018-06-14T03:16:58.511Z,99539.61
2018-06-14T03:23:04.179Z,99550.05
2018-06-14T03:29:09.530Z,99540.31
2018-06-14T03:35:15.364Z,99548.59
2018-06-14T03:41:22.600Z,99546.42
2018-06-14T03:47:28.580Z,99546.22
2018-06-14T03:53:34.558Z,99548.59
2018-06-14T03:59:40.309Z,99546.88
2018-06-14T04:05:45.983Z,99547.50
2018-06-14T04:11:54.039Z,99550.70
2018-06-14T04:18:03.976Z,99552.75
2018-06-14T04:24:09.964Z,99540.79
2018-06-14T04:30:15.622Z,99539.31
2018-06-14T04:36:23.754Z,99542.16
2018-06-14T04:42:29.909Z,99539.13
2018-06-14T04:48:36.349Z,99532.37
2018-06-14T04:54:42.031Z,99530.02
2018-06-14T05:00:48.097Z,99528.45
2018-06-14T05:06:53.795Z,99526.92
2018-06-14T05:12:59.526Z,99532.51
2018-06-14T05:19:05.553Z,99548.80
2018-06-14T05:25:11.245Z,99546.23
2018-06-14T05:31:17.173Z,99551.05
2018-06-14T05:37:23.042Z,99540.45
2018-06-14T05:43:28.704Z,99542.71
2018-06-14T05:49:34.752Z,99542.74
2018-06-14T05:55:40.070Z,99540.95
2018-06-14T06:01:45.657Z,99541.27
2018-06-14T06:07:51.806Z,99548.83
2018-06-14T06:13:57.985Z,99546.44
2018-06-14T06:20:03.966Z,99541.80
2018-06-14T06:26:09.967Z,99530.39
2018-06-14T06:32:15.680Z,99534.02
2018-06-14T06:38:21.914Z,99530.69
2018-06-14T06:44:27.880Z,99529.58
2018-06-14T06:50:34.014Z,99516.14
2018-06-14T06:56:39.650Z,99512.15
2018-06-14T07:02:45.668Z,99507.86
2018-06-14T07:08:51.802Z,99504.42
2018-06-14T07:14:57.952Z,99501.91
2018-06-14T07:21:03.683Z,99494.70
2018-06-14T07:27:09.565Z,99488.97
2018-06-14T07:33:15.238Z,99494.55
2018-06-14T07:39:21.473Z,99489.53
2018-06-14T07:45:27.067Z,99490.69
2018-06-14T07:51:33.765Z,99487.14
2018-06-14T07:57:39.791Z,99487.78
2018-06-14T08:03:45.574Z,99487.04
2018-06-14T08:09:52.011Z,99484.42
2018-06-14T08:15:57.941Z,99470.17
2018-06-14T08:22:03.694Z,99474.66
2018-06-14T08:28:09.437Z,99482.16
2018-06-14T08:34:15.361Z,99479.36
2018-06-14T08:40:21.967Z,99470.81
2018-06-14T08:46:27.858Z,99468.11
2018-06-14T08:52:33.569Z,99469.78
2018-06-14T08:58:39.317Z,99463.95
2018-06-14T09:04:44.891Z,99461.92
2018-06-14T09:10:51.071Z,99453.95
2018-06-14T09:16:57.635Z,99450.69
2018-06-14T09:23:03.555Z,99448.81
2018-06-14T09:29:09.389Z,99440.80
2018-06-14T09:35:15.372Z,99429.40
2018-06-14T09:41:21.590Z,99428.30
2018-06-14T09:47:27.374Z,99421.54
2018-06-14T09:53:33.048Z,99419.38
2018-06-14T09:59:38.770Z,99416.73
2018-06-14T10:05:44.483Z,99412.17
2018-06-14T10:11:50.396Z,99402.67
2018-06-14T10:17:56.052Z,99408.16
2018-06-14T10:24:01.909Z,99405.95
2018-06-14T10:30:07.689Z,99381.37
2018-06-14T10:36:13.423Z,99393.30
2018-06-14T10:42:19.235Z,99383.56
2018-06-14T10:48:25.292Z,99377.98
2018-06-14T10:54:31.086Z,99375.59
2018-06-14T11:00:36.775Z,99373.11
2018-06-14T11:06:42.864Z,99357.48
2018-06-14T11:12:49.839Z,99368.56
2018-06-14T11:18:55.566Z,99351.85
2018-06-14T11:25:02.814Z,99346.70
2018-06-14T11:31:08.579Z,99336.41
2018-06-14T11:37:14.395Z,99337.69
2018-06-14T11:43:20.218Z,99320.69
2018-06-14T11:49:26.807Z,99318.42
2018-06-14T11:55:32.488Z,99310.99
2018-06-14T12:01:38.164Z,99304.67
2018-06-14T12:07:43.962Z,99295.23
2018-06-14T12:13:49.853Z,99288.23
2018-06-14T12:19:56.534Z,99284.47
2018-06-14T12:26:02.285Z,99281.81
2018-06-14T12:32:08.089Z,99270.80
2018-06-14T12:38:13.804Z,99273.72
2018-06-14T12:44:20.062Z,99268.44
2018-06-14T12:50:26.153Z,99264.28
2018-06-14T12:56:31.769Z,99254.41
2018-06-14T13:02:37.393Z,99248.73
2018-06-14T13:08:43.115Z,99234.20
2018-06-14T13:14:49.135Z,99233.00
2018-06-14T13:20:55.701Z,99229.88
2018-06-14T13:27:01.416Z,99228.20
2018-06-14T13:33:07.216Z,99220.23
2018-06-14T13:39:12.943Z,99211.13
2018-06-14T13:45:18.589Z,99209.45
2018-06-14T13:51:24.347Z,99209.00
2018-06-14T13:57:29.985Z,99208.11
2018-06-14T14:03:36.639Z,99207.41
2018-06-14T14:09:42.556Z,99208.02
2018-06-14T14:15:48.219Z,99203.06
2018-06-14T14:21:54.418Z,99204.48
2018-06-14T14:28:00.269Z,99194.35
2018-06-14T14:34:06.657Z,99189.02
2018-06-14T14:40:12.598Z,99190.31
2018-06-14T14:46:18.576Z,99184.44
2018-06-14T14:52:25.219Z,99187.36
2018-06-14T14:58:30.933Z,99178.94
2018-06-14T15:04:36.676Z,99189.45
2018-06-14T15:10:42.561Z,99180.09
2018-06-14T15:16:48.067Z,99181.60
2018-06-14T15:22:55.189Z,99183.52
2018-06-14T15:29:01.031Z,99186.73
2018-06-14T15:35:06.953Z,99178.20
2018-06-14T15:41:13.128Z,99171.28
2018-06-14T15:47:18.795Z,99160.80
2018-06-14T15:53:24.579Z,99165.25
2018-06-14T15:59:30.340Z,99158.83
2018-06-14T16:05:36.021Z,99157.08
2018-06-14T16:11:42.370Z,99153.86
2018-06-14T16:17:48.000Z,99156.41
2018-06-14T16:23:54.384Z,99153.11
2018-06-14T16:29:59.995Z,99166.55
2018-06-14T16:36:06.304Z,99160.27
2018-06-14T16:42:11.995Z,99159.00
2018-06-14T16:48:17.905Z,99156.06
2018-06-14T16:54:24.364Z,99163.31
2018-06-14T17:00:30.453Z,99159.87
2018-06-14T17:06:36.100Z,99164.43
2018-06-14T17:12:41.785Z,99169.33
2018-06-14T17:18:47.432Z,99174.10
2018-06-14T17:24:53.607Z,99177.18
2018-06-14T17:30:59.492Z,99189.95
2018-06-14T17:37:05.144Z,99194.41
2018-06-14T17:43:11.215Z,99202.48
2018-06-14T17:49:16.801Z,99199.59
2018-06-14T17:55:22.651Z,99209.72
2018-06-14T18:01:28.609Z,99217.38
2018-06-14T18:07:35.086Z,99221.04
2018-06-14T18:13:40.126Z,99229.54
2018-06-14T18:19:46.329Z,99237.71
2018-06-14T18:25:53.557Z,99256.74
2018-06-14T18:31:59.182Z,99270.78
2018-06-14T18:38:05.104Z,99278.71
2018-06-14T18:44:10.887Z,99280.61
2018-06-14T18:50:16.520Z,99280.35
2018-06-14T18:56:23.143Z,99285.55
2018-06-14T19:02:28.966Z,99282.80
2018-06-14T19:08:34.915Z,99287.92
2018-06-14T19:14:40.976Z,99292.77
2018-06-14T19:20:46.732Z,99299.78
2018-06-14T19:26:53.376Z,99308.70
2018-06-14T19:32:59.172Z,99335.70
2018-06-14T19:39:07.866Z,99357.47
2018-06-14T19:45:13.679Z,99365.00
2018-06-14T19:51:19.957Z,99387.15
2018-06-14T19:57:26.058Z,99393.16
2018-06-14T20:03:31.848Z,99408.24
2018-06-14T20:09:37.588Z,99416.86
2018-06-14T20:15:43.274Z,99418.94
2018-06-14T20:21:48.965Z,99421.91
2018-06-14T20:27:56.082Z,99427.50
2018-06-14T20:34:01.958Z,99430.20
2018-06-14T20:40:07.707Z,99435.45
2018-06-14T20:46:13.319Z,99436.58
2018-06-14T20:52:19.444Z,99437.87
2018-06-14T20:58:26.023Z,99449.06
2018-06-14T21:04:31.762Z,99445.75
2018-06-14T21:10:37.504Z,99454.70
2018-06-14T21:16:43.247Z,99449.14
2018-06-14T21:22:48.905Z,99462.72
2018-06-14T21:28:55.181Z,99469.21
2018-06-14T21:35:00.847Z,99471.17
2018-06-14T21:41:06.668Z,99467.36
2018-06-14T21:47:12.428Z,99468.54
2018-06-14T21:53:18.277Z,99462.55
2018-06-14T22:09:09.132Z,99475.30
2018-06-14T22:15:14.757Z,99475.19
2018-06-14T22:21:20.765Z,99477.05
2018-06-14T22:27:27.590Z,99475.70
2018-06-14T22:33:51.584Z,99477.56
2018-06-14T22:39:57.344Z,99480.23
2018-06-14T22:46:03.417Z,99475.80
2018-06-14T22:53:17.138Z,99476.69
2018-06-14T22:59:23.861Z,99477.51
2018-06-14T23:05:30.220Z,99465.46
2018-06-14T23:11:35.900Z,99459.77
2018-06-14T23:17:41.942Z,99459.05
2018-06-14T23:23:47.629Z,99453.81
2018-06-14T23:29:54.531Z,99450.56
2018-06-14T23:36:00.289Z,99460.69
2018-06-14T23:42:06.471Z,99459.70
2018-06-14T23:48:12.192Z,99465.11
2018-06-14T23:54:18.005Z,99458.06
